This is the latest recevied weather packets stored in our database for station/object KB1JLI. If no packets are shown the sender has not sent any weather packets the latest 1 day(s).
| Time | Temp. | Humidity | Pressure | Rain* | Wind** | Luminosity | Snow |
|---|---|---|---|---|---|---|---|
| 1777996239 | 25° C | 46% | 1009.3 hPa | 0 mm | 0.45 m/s, 195° | 669 W/m² | - |
| 1777995935 | 25° C | 44% | 1009.1 hPa | 0 mm | 0.89 m/s, 197° | 656 W/m² | - |
| 1777995631 | 23.89° C | 46% | 1009.2 hPa | 0 mm | 0.89 m/s, 260° | 651 W/m² | - |
| 1777995330 | 23.89° C | 47% | 1009.4 hPa | 0 mm | 1.34 m/s, 208° | 685 W/m² | - |
| 1777995026 | 23.33° C | 49% | 1009.4 hPa | 0 mm | 0.89 m/s, 214° | 750 W/m² | - |
| 1777994723 | 24.44° C | 46% | 1009.4 hPa | 0 mm | 2.68 m/s, 264° | 655 W/m² | - |
| 1777994419 | 25° C | 46% | 1009.5 hPa | 0 mm | 0.45 m/s, 177° | 634 W/m² | - |
| 1777994114 | 23.89° C | 47% | 1009.3 hPa | 0 mm | 0.89 m/s, 140° | 685 W/m² | - |
| 1777993812 | 23.89° C | 48% | 1009.4 hPa | 0 mm | 1.34 m/s, 358° | 621 W/m² | - |
| 1777993508 | 23.33° C | 49% | 1009.6 hPa | 0 mm | 0 m/s | 599 W/m² | - |
| 1777993204 | 21.67° C | 51% | 1009.7 hPa | 0 mm | 3.13 m/s, 185° | 609 W/m² | - |
| 1777992901 | 21.67° C | 51% | 1009.5 hPa | 0 mm | 1.79 m/s, 232° | 695 W/m² | - |
| 1777992599 | 21.67° C | 52% | 1009.8 hPa | 0 mm | 1.34 m/s, 210° | 265 W/m² | - |
| 1777992296 | 22.78° C | 53% | 1009.7 hPa | 0 mm | 0.89 m/s, 200° | 297 W/m² | - |
| 1777991994 | 21.67° C | 54% | 1009.8 hPa | 0 mm | 0.89 m/s, 208° | 156 W/m² | - |
| 1777991691 | 21.67° C | 53% | 1009.9 hPa | 0 mm | 2.68 m/s, 205° | 165 W/m² | - |
| 1777991388 | 21.67° C | 53% | 1010 hPa | 0 mm | 2.68 m/s, 178° | 653 W/m² | - |
| 1777991085 | 20.56° C | 56% | 1009.7 hPa | 0 mm | 0.89 m/s, 197° | 653 W/m² | - |
| 1777990783 | 20.56° C | 57% | 1009.5 hPa | 0 mm | 1.34 m/s, 158° | 360 W/m² | - |
| 1777990480 | 20.56° C | 56% | 1009.4 hPa | 0 mm | 0.89 m/s, 175° | 186 W/m² | - |
| 1777990177 | 20° C | 59% | 1009.7 hPa | 0 mm | 0.45 m/s, 223° | 271 W/m² | - |
| 1777989873 | 20° C | 59% | 1009.6 hPa | 0 mm | 0.45 m/s, 201° | 142 W/m² | - |
| 1777989571 | 20.56° C | 58% | 1009.7 hPa | 0 mm | 0.45 m/s, 258° | 389 W/m² | - |
| 1777989266 | 19.44° C | 61% | 1009.6 hPa | 0 mm | 0 m/s | 521 W/m² | - |
| 1777988963 | 19.44° C | 62% | 1009.7 hPa | 0 mm | 2.68 m/s, 210° | 483 W/m² | - |
* Rain latest hour (hover to see other rain measurements)
** Current wind speed in m/s (hover to see current wind gust speed)